PBD5854 UWKS-UUEE
Flight info
| Callsign | PBD5854 |
|---|---|
| Flight time | 1h 12m |
| Altitude | 36000 |
| Route | IRGOS1C IRGOS L158 DIMGI DIMGI3F |
| Aircraft | B738/M-SADFGHIJ1J4RWY/HB1 |
Departure
| Time | 2026-04-26 20:16 |
|---|---|
| Airport | Cheboksary Airport (UWKS) |
Arrival
| Time | 2026-04-26 21:29 |
|---|---|
| Airport | Sheremetyevo International Airport (UUEE) |
| Time | Latitude | Longitude | Altitude | Speed | Heading |
|---|---|---|---|---|---|
| 2026-04-26 19:53 | 56.08326 | 47.32090 | 569 ft | 0 kts | 262° |
| 2026-04-26 20:11 | 56.08326 | 47.32089 | 563 ft | 0 kts | 262° |
| 2026-04-26 20:12 | 56.08360 | 47.32042 | 565 ft | 6 kts | 41° |
| 2026-04-26 20:12 | 56.08370 | 47.32113 | 566 ft | 6 kts | 86° |
| 2026-04-26 20:12 | 56.08379 | 47.32185 | 568 ft | 6 kts | 59° |
| 2026-04-26 20:12 | 56.08416 | 47.32247 | 564 ft | 8 kts | 47° |
| 2026-04-26 20:13 | 56.08450 | 47.32326 | 568 ft | 8 kts | 57° |
| 2026-04-26 20:13 | 56.08474 | 47.32394 | 566 ft | 0 kts | 59° |
| 2026-04-26 20:14 | 56.08485 | 47.32424 | 569 ft | 8 kts | 56° |
| 2026-04-26 20:14 | 56.08522 | 47.32522 | 566 ft | 10 kts | 54° |
| 2026-04-26 20:14 | 56.08562 | 47.32622 | 565 ft | 11 kts | 55° |
| 2026-04-26 20:14 | 56.08613 | 47.32752 | 563 ft | 16 kts | 54° |
| 2026-04-26 20:15 | 56.08681 | 47.32904 | 570 ft | 15 kts | 45° |
| 2026-04-26 20:15 | 56.08718 | 47.33029 | 570 ft | 11 kts | 75° |
| 2026-04-26 20:15 | 56.08740 | 47.33160 | 570 ft | 13 kts | 72° |
| 2026-04-26 20:15 | 56.08780 | 47.33366 | 573 ft | 31 kts | 72° |
| 2026-04-26 20:16 | 56.08926 | 47.34163 | 569 ft | 102 kts | 70° |
| 2026-04-26 20:16 | 56.09210 | 47.35733 | 568 ft | 160 kts | 72° |
| 2026-04-26 20:16 | 56.09591 | 47.37799 | 994 ft | 180 kts | 75° |
| 2026-04-26 20:16 | 56.10134 | 47.39970 | 1537 ft | 206 kts | 68° |
| 2026-04-26 20:17 | 56.10630 | 47.42407 | 2060 ft | 208 kts | 100° |
| 2026-04-26 20:17 | 56.10211 | 47.44672 | 2629 ft | 190 kts | 142° |
| 2026-04-26 20:17 | 56.09085 | 47.45745 | 2923 ft | 185 kts | 179° |
| 2026-04-26 20:17 | 56.08232 | 47.45618 | 3111 ft | 190 kts | 199° |
| 2026-04-26 20:18 | 56.06768 | 47.43713 | 3564 ft | 209 kts | 230° |
| 2026-04-26 20:18 | 56.06007 | 47.41433 | 4055 ft | 217 kts | 238° |
| 2026-04-26 20:18 | 56.05301 | 47.38906 | 4341 ft | 237 kts | 240° |
| 2026-04-26 20:18 | 56.04561 | 47.36179 | 4896 ft | 248 kts | 240° |
| 2026-04-26 20:19 | 56.03804 | 47.33385 | 5653 ft | 251 kts | 240° |
| 2026-04-26 20:19 | 56.03029 | 47.30540 | 6323 ft | 258 kts | 240° |
| 2026-04-26 20:19 | 56.02237 | 47.27650 | 7066 ft | 260 kts | 240° |
| 2026-04-26 20:19 | 56.01435 | 47.24734 | 7812 ft | 263 kts | 240° |
| 2026-04-26 20:20 | 56.00619 | 47.21785 | 8530 ft | 266 kts | 240° |
| 2026-04-26 20:20 | 55.99790 | 47.18802 | 9256 ft | 270 kts | 239° |
| 2026-04-26 20:20 | 55.98950 | 47.15786 | 9916 ft | 274 kts | 239° |
| 2026-04-26 20:20 | 55.98066 | 47.12630 | 10132 ft | 295 kts | 240° |
| 2026-04-26 20:21 | 55.97114 | 47.09244 | 10318 ft | 316 kts | 240° |
| 2026-04-26 20:21 | 55.96098 | 47.05635 | 10471 ft | 336 kts | 240° |
| 2026-04-26 20:21 | 55.95046 | 47.01886 | 11199 ft | 333 kts | 240° |
| 2026-04-26 20:21 | 55.94026 | 46.98243 | 12337 ft | 323 kts | 240° |
| 2026-04-26 20:22 | 55.93031 | 46.94700 | 13336 ft | 320 kts | 240° |
| 2026-04-26 20:22 | 55.92037 | 46.91178 | 14003 ft | 323 kts | 240° |
| 2026-04-26 20:22 | 55.91023 | 46.87597 | 14714 ft | 324 kts | 240° |
| 2026-04-26 20:22 | 55.90003 | 46.83997 | 15455 ft | 326 kts | 240° |
| 2026-04-26 20:23 | 55.88979 | 46.80391 | 16205 ft | 327 kts | 240° |
| 2026-04-26 20:23 | 55.87949 | 46.76768 | 16938 ft | 329 kts | 240° |
| 2026-04-26 20:23 | 55.86912 | 46.73127 | 17660 ft | 331 kts | 240° |
| 2026-04-26 20:23 | 55.85868 | 46.69465 | 18306 ft | 333 kts | 240° |
| 2026-04-26 20:24 | 55.84814 | 46.65773 | 18895 ft | 336 kts | 240° |
| 2026-04-26 20:24 | 55.83749 | 46.62048 | 19473 ft | 338 kts | 240° |
| 2026-04-26 20:24 | 55.82678 | 46.58306 | 20073 ft | 341 kts | 240° |
| 2026-04-26 20:24 | 55.81595 | 46.54536 | 20652 ft | 344 kts | 240° |
| 2026-04-26 20:25 | 55.80556 | 46.50672 | 21213 ft | 349 kts | 246° |
| 2026-04-26 20:25 | 55.80077 | 46.47931 | 21590 ft | 353 kts | 252° |
| 2026-04-26 20:25 | 55.79560 | 46.42114 | 22358 ft | 360 kts | 264° |
| 2026-04-26 20:25 | 55.79615 | 46.37612 | 22908 ft | 366 kts | 268° |
| 2026-04-26 20:26 | 55.79765 | 46.33083 | 23394 ft | 369 kts | 269° |
| 2026-04-26 20:26 | 55.79937 | 46.28513 | 23846 ft | 371 kts | 269° |
| 2026-04-26 20:26 | 55.80110 | 46.23925 | 24333 ft | 373 kts | 269° |
| 2026-04-26 20:26 | 55.80275 | 46.19321 | 24797 ft | 374 kts | 269° |
| 2026-04-26 20:27 | 55.80432 | 46.14754 | 25241 ft | 376 kts | 268° |
| 2026-04-26 20:27 | 55.80584 | 46.10101 | 25681 ft | 378 kts | 268° |
| 2026-04-26 20:27 | 55.80733 | 46.05419 | 26108 ft | 380 kts | 268° |
| 2026-04-26 20:27 | 55.80878 | 46.00726 | 26625 ft | 379 kts | 268° |
| 2026-04-26 20:28 | 55.81020 | 45.96069 | 27257 ft | 376 kts | 268° |
| 2026-04-26 20:28 | 55.81160 | 45.91461 | 27882 ft | 372 kts | 268° |
| 2026-04-26 20:28 | 55.81296 | 45.86879 | 28457 ft | 370 kts | 268° |
| 2026-04-26 20:28 | 55.81428 | 45.82318 | 28984 ft | 369 kts | 267° |
| 2026-04-26 20:29 | 55.81558 | 45.77777 | 29507 ft | 367 kts | 267° |
| 2026-04-26 20:29 | 55.81686 | 45.73248 | 29978 ft | 365 kts | 267° |
| 2026-04-26 20:29 | 55.81811 | 45.68754 | 30424 ft | 363 kts | 267° |
| 2026-04-26 20:29 | 55.81935 | 45.64267 | 30825 ft | 363 kts | 267° |
| 2026-04-26 20:30 | 55.82056 | 45.59786 | 31229 ft | 361 kts | 267° |
| 2026-04-26 20:30 | 55.82176 | 45.55333 | 31643 ft | 360 kts | 267° |
| 2026-04-26 20:30 | 55.82293 | 45.50893 | 32050 ft | 358 kts | 266° |
| 2026-04-26 20:30 | 55.82409 | 45.46461 | 32424 ft | 357 kts | 266° |
| 2026-04-26 20:31 | 55.82522 | 45.42052 | 32799 ft | 356 kts | 266° |
| 2026-04-26 20:31 | 55.82633 | 45.37658 | 33172 ft | 355 kts | 266° |
| 2026-04-26 20:31 | 55.82741 | 45.33337 | 33524 ft | 354 kts | 266° |
| 2026-04-26 20:31 | 55.82849 | 45.28956 | 33786 ft | 354 kts | 266° |
| 2026-04-26 20:32 | 55.82956 | 45.24551 | 33955 ft | 357 kts | 266° |
| 2026-04-26 20:32 | 55.83060 | 45.20138 | 34137 ft | 358 kts | 266° |
| 2026-04-26 20:32 | 55.83165 | 45.15697 | 34357 ft | 359 kts | 266° |
| 2026-04-26 20:32 | 55.83269 | 45.11251 | 34543 ft | 361 kts | 266° |
| 2026-04-26 20:33 | 55.83373 | 45.06782 | 34724 ft | 362 kts | 266° |
| 2026-04-26 20:33 | 55.83474 | 45.02291 | 34913 ft | 363 kts | 266° |
| 2026-04-26 20:33 | 55.83574 | 44.97797 | 35096 ft | 364 kts | 266° |
| 2026-04-26 20:33 | 55.83672 | 44.93287 | 35267 ft | 365 kts | 266° |
| 2026-04-26 20:34 | 55.83770 | 44.88767 | 35448 ft | 366 kts | 266° |
| 2026-04-26 20:34 | 55.83962 | 44.79664 | 35522 ft | 374 kts | 266° |
| 2026-04-26 20:35 | 55.84153 | 44.70298 | 35531 ft | 381 kts | 267° |
| 2026-04-26 20:35 | 55.84342 | 44.60833 | 35518 ft | 385 kts | 266° |
| 2026-04-26 20:36 | 55.84526 | 44.51342 | 35500 ft | 380 kts | 266° |
| 2026-04-26 20:36 | 55.84701 | 44.42039 | 35500 ft | 374 kts | 266° |
| 2026-04-26 20:37 | 55.84862 | 44.32737 | 35504 ft | 376 kts | 266° |
| 2026-04-26 20:37 | 55.85018 | 44.23403 | 35500 ft | 378 kts | 266° |
| 2026-04-26 20:38 | 55.85167 | 44.14082 | 35487 ft | 380 kts | 266° |
| 2026-04-26 20:38 | 55.85312 | 44.04636 | 35482 ft | 382 kts | 266° |
| 2026-04-26 20:39 | 55.85449 | 43.95169 | 35473 ft | 383 kts | 266° |
| 2026-04-26 20:39 | 55.85581 | 43.85668 | 35467 ft | 385 kts | 266° |
| 2026-04-26 20:40 | 55.85705 | 43.76128 | 35461 ft | 385 kts | 266° |
| 2026-04-26 20:40 | 55.85822 | 43.66580 | 35450 ft | 386 kts | 266° |
| 2026-04-26 20:41 | 55.85933 | 43.57034 | 35451 ft | 385 kts | 266° |
| 2026-04-26 20:41 | 55.86036 | 43.47486 | 35445 ft | 385 kts | 266° |
| 2026-04-26 20:42 | 55.86139 | 43.38015 | 35438 ft | 385 kts | 266° |
| 2026-04-26 20:42 | 55.86236 | 43.28488 | 35432 ft | 385 kts | 266° |
| 2026-04-26 20:43 | 55.86327 | 43.18970 | 35429 ft | 384 kts | 266° |
| 2026-04-26 20:43 | 55.86396 | 43.11053 | 35422 ft | 384 kts | 266° |
| 2026-04-26 20:44 | 55.86484 | 42.99938 | 35416 ft | 384 kts | 266° |
| 2026-04-26 20:44 | 55.86541 | 42.92023 | 35415 ft | 384 kts | 266° |
| 2026-04-26 20:45 | 55.86612 | 42.80935 | 35406 ft | 385 kts | 266° |
| 2026-04-26 20:45 | 55.86656 | 42.72984 | 35407 ft | 386 kts | 266° |
| 2026-04-26 20:46 | 55.86704 | 42.63409 | 35398 ft | 388 kts | 266° |
| 2026-04-26 20:46 | 55.86743 | 42.53794 | 35394 ft | 389 kts | 266° |
| 2026-04-26 20:47 | 55.86776 | 42.44141 | 35386 ft | 390 kts | 266° |
| 2026-04-26 20:47 | 55.86801 | 42.34469 | 35378 ft | 390 kts | 265° |
| 2026-04-26 20:48 | 55.86819 | 42.24856 | 35373 ft | 391 kts | 265° |
| 2026-04-26 20:48 | 55.86829 | 42.15172 | 35370 ft | 391 kts | 265° |
| 2026-04-26 20:49 | 55.86832 | 42.05492 | 35360 ft | 391 kts | 265° |
| 2026-04-26 20:49 | 55.86827 | 41.95787 | 35358 ft | 391 kts | 265° |
| 2026-04-26 20:50 | 55.86816 | 41.86120 | 35349 ft | 390 kts | 265° |
| 2026-04-26 20:50 | 55.86785 | 41.76467 | 35350 ft | 389 kts | 264° |
| 2026-04-26 20:51 | 55.86526 | 41.66877 | 35343 ft | 387 kts | 262° |
| 2026-04-26 20:51 | 55.86199 | 41.57379 | 35338 ft | 386 kts | 262° |
| 2026-04-26 20:52 | 55.85882 | 41.47847 | 35334 ft | 385 kts | 262° |
| 2026-04-26 20:52 | 55.85575 | 41.38345 | 35334 ft | 384 kts | 262° |
| 2026-04-26 20:53 | 55.85265 | 41.28856 | 35325 ft | 384 kts | 262° |
| 2026-04-26 20:53 | 55.84950 | 41.19376 | 35328 ft | 384 kts | 262° |
| 2026-04-26 20:54 | 55.84627 | 41.09892 | 35312 ft | 384 kts | 262° |
| 2026-04-26 20:54 | 55.84296 | 41.00406 | 35318 ft | 384 kts | 262° |
| 2026-04-26 20:55 | 55.83958 | 40.90899 | 35306 ft | 385 kts | 262° |
| 2026-04-26 20:55 | 55.83611 | 40.81391 | 35296 ft | 385 kts | 262° |
| 2026-04-26 20:56 | 55.83261 | 40.71927 | 35298 ft | 386 kts | 262° |
| 2026-04-26 20:56 | 55.82900 | 40.62389 | 35291 ft | 387 kts | 262° |
| 2026-04-26 20:57 | 55.82520 | 40.52869 | 35251 ft | 381 kts | 262° |
| 2026-04-26 20:57 | 55.82330 | 40.48202 | 34943 ft | 377 kts | 262° |
| 2026-04-26 20:57 | 55.82138 | 40.43559 | 34492 ft | 377 kts | 262° |
| 2026-04-26 20:57 | 55.81944 | 40.38908 | 34008 ft | 379 kts | 261° |
| 2026-04-26 20:58 | 55.81744 | 40.34192 | 33310 ft | 386 kts | 261° |
| 2026-04-26 20:58 | 55.81535 | 40.29334 | 32166 ft | 401 kts | 261° |
| 2026-04-26 20:58 | 55.81317 | 40.24306 | 31077 ft | 414 kts | 259° |
| 2026-04-26 20:58 | 55.81094 | 40.19160 | 30132 ft | 422 kts | 259° |
| 2026-04-26 20:59 | 55.80867 | 40.13917 | 29294 ft | 426 kts | 258° |
| 2026-04-26 20:59 | 55.80638 | 40.08644 | 28276 ft | 429 kts | 258° |
| 2026-04-26 20:59 | 55.80406 | 40.03391 | 27266 ft | 433 kts | 258° |
| 2026-04-26 20:59 | 55.80327 | 39.98022 | 26496 ft | 442 kts | 270° |
| 2026-04-26 21:00 | 55.81170 | 39.92728 | 26282 ft | 445 kts | 285° |
| 2026-04-26 21:00 | 55.82433 | 39.87790 | 26206 ft | 433 kts | 288° |
| 2026-04-26 21:00 | 55.83758 | 39.83066 | 25994 ft | 423 kts | 289° |
| 2026-04-26 21:00 | 55.85089 | 39.78438 | 25546 ft | 419 kts | 289° |
| 2026-04-26 21:01 | 55.86412 | 39.73880 | 25353 ft | 409 kts | 289° |
| 2026-04-26 21:01 | 55.87714 | 39.69421 | 25021 ft | 404 kts | 289° |
| 2026-04-26 21:01 | 55.89002 | 39.65018 | 24760 ft | 398 kts | 289° |
| 2026-04-26 21:01 | 55.90269 | 39.60691 | 24635 ft | 392 kts | 289° |
| 2026-04-26 21:02 | 55.91434 | 39.56272 | 24578 ft | 395 kts | 283° |
| 2026-04-26 21:02 | 55.92357 | 39.51620 | 24520 ft | 401 kts | 280° |
| 2026-04-26 21:02 | 55.93222 | 39.46884 | 24468 ft | 400 kts | 279° |
| 2026-04-26 21:02 | 55.94058 | 39.42235 | 24471 ft | 396 kts | 279° |
| 2026-04-26 21:03 | 55.94896 | 39.37546 | 24344 ft | 399 kts | 279° |
| 2026-04-26 21:03 | 55.95734 | 39.32830 | 24094 ft | 397 kts | 279° |
| 2026-04-26 21:03 | 55.96566 | 39.28151 | 23729 ft | 394 kts | 279° |
| 2026-04-26 21:03 | 55.97391 | 39.23517 | 23435 ft | 387 kts | 279° |
| 2026-04-26 21:04 | 55.98208 | 39.18946 | 23109 ft | 384 kts | 279° |
| 2026-04-26 21:04 | 55.99016 | 39.14443 | 23064 ft | 382 kts | 279° |
| 2026-04-26 21:04 | 55.99831 | 39.09872 | 23050 ft | 390 kts | 279° |
| 2026-04-26 21:04 | 56.00654 | 39.05217 | 23032 ft | 395 kts | 279° |
| 2026-04-26 21:05 | 56.01482 | 39.00535 | 23023 ft | 394 kts | 279° |
| 2026-04-26 21:05 | 56.02312 | 38.95875 | 23025 ft | 392 kts | 279° |
| 2026-04-26 21:05 | 56.03142 | 38.91239 | 23030 ft | 390 kts | 279° |
| 2026-04-26 21:05 | 56.03970 | 38.86666 | 22846 ft | 385 kts | 279° |
| 2026-04-26 21:06 | 56.04798 | 38.82113 | 22364 ft | 385 kts | 279° |
| 2026-04-26 21:06 | 56.05622 | 38.77604 | 22237 ft | 375 kts | 279° |
| 2026-04-26 21:06 | 56.06421 | 38.73258 | 21880 ft | 373 kts | 279° |
| 2026-04-26 21:06 | 56.07231 | 38.68807 | 21304 ft | 377 kts | 279° |
| 2026-04-26 21:07 | 56.08029 | 38.64400 | 21235 ft | 365 kts | 279° |
| 2026-04-26 21:07 | 56.08809 | 38.60131 | 21080 ft | 356 kts | 279° |
| 2026-04-26 21:07 | 56.09581 | 38.55875 | 20391 ft | 363 kts | 279° |
| 2026-04-26 21:07 | 56.10349 | 38.51548 | 19921 ft | 364 kts | 279° |
| 2026-04-26 21:08 | 56.11101 | 38.47268 | 19769 ft | 355 kts | 279° |
| 2026-04-26 21:08 | 56.11795 | 38.43084 | 19577 ft | 343 kts | 272° |
| 2026-04-26 21:08 | 56.11850 | 38.38962 | 19230 ft | 322 kts | 250° |
| 2026-04-26 21:08 | 56.11136 | 38.35316 | 18848 ft | 310 kts | 236° |
| 2026-04-26 21:09 | 56.10159 | 38.31873 | 18451 ft | 310 kts | 236° |
| 2026-04-26 21:09 | 56.09184 | 38.28413 | 18051 ft | 311 kts | 236° |
| 2026-04-26 21:09 | 56.08218 | 38.24947 | 17696 ft | 311 kts | 236° |
| 2026-04-26 21:09 | 56.07256 | 38.21470 | 17294 ft | 311 kts | 237° |
| 2026-04-26 21:10 | 56.06297 | 38.17989 | 16905 ft | 311 kts | 237° |
| 2026-04-26 21:10 | 56.05345 | 38.14527 | 16539 ft | 309 kts | 237° |
| 2026-04-26 21:10 | 56.04407 | 38.11115 | 16162 ft | 309 kts | 238° |
| 2026-04-26 21:10 | 56.03460 | 38.07672 | 15796 ft | 308 kts | 238° |
| 2026-04-26 21:11 | 56.02512 | 38.04236 | 15491 ft | 306 kts | 238° |
| 2026-04-26 21:11 | 56.01575 | 38.00841 | 15295 ft | 302 kts | 238° |
| 2026-04-26 21:11 | 56.00789 | 37.97348 | 15106 ft | 307 kts | 253° |
| 2026-04-26 21:11 | 56.00761 | 37.93488 | 14975 ft | 317 kts | 275° |
| 2026-04-26 21:12 | 56.01178 | 37.89568 | 14855 ft | 324 kts | 277° |
| 2026-04-26 21:12 | 56.01624 | 37.85596 | 14679 ft | 325 kts | 277° |
| 2026-04-26 21:12 | 56.02067 | 37.81656 | 14513 ft | 323 kts | 281° |
| 2026-04-26 21:12 | 56.03011 | 37.78006 | 14315 ft | 327 kts | 305° |
| 2026-04-26 21:13 | 56.04672 | 37.75256 | 13917 ft | 335 kts | 329° |
| 2026-04-26 21:13 | 56.06801 | 37.73391 | 13556 ft | 337 kts | 335° |
| 2026-04-26 21:13 | 56.08922 | 37.71699 | 13134 ft | 338 kts | 335° |
| 2026-04-26 21:13 | 56.11071 | 37.69966 | 12664 ft | 339 kts | 335° |
| 2026-04-26 21:14 | 56.13301 | 37.68661 | 12229 ft | 336 kts | 354° |
| 2026-04-26 21:14 | 56.15592 | 37.68686 | 12061 ft | 325 kts | 6° |
| 2026-04-26 21:14 | 56.17827 | 37.69063 | 11881 ft | 317 kts | 8° |
| 2026-04-26 21:14 | 56.20013 | 37.69466 | 11599 ft | 313 kts | 8° |
| 2026-04-26 21:15 | 56.22168 | 37.69836 | 11330 ft | 309 kts | 7° |
| 2026-04-26 21:15 | 56.24306 | 37.70177 | 11058 ft | 306 kts | 7° |
| 2026-04-26 21:15 | 56.26412 | 37.70502 | 10800 ft | 302 kts | 7° |
| 2026-04-26 21:15 | 56.28508 | 37.70711 | 10521 ft | 302 kts | 357° |
| 2026-04-26 21:16 | 56.30494 | 37.69617 | 10342 ft | 299 kts | 331° |
| 2026-04-26 21:16 | 56.32063 | 37.67201 | 10097 ft | 297 kts | 310° |
| 2026-04-26 21:16 | 56.33299 | 37.64323 | 9867 ft | 293 kts | 298° |
| 2026-04-26 21:16 | 56.33778 | 37.60850 | 9641 ft | 285 kts | 264° |
| 2026-04-26 21:17 | 56.33343 | 37.57428 | 9422 ft | 278 kts | 245° |
| 2026-04-26 21:17 | 56.32512 | 37.54303 | 9182 ft | 275 kts | 239° |
| 2026-04-26 21:17 | 56.31612 | 37.51269 | 8907 ft | 274 kts | 240° |
| 2026-04-26 21:17 | 56.30713 | 37.48255 | 8629 ft | 273 kts | 241° |
| 2026-04-26 21:18 | 56.29826 | 37.45230 | 8368 ft | 272 kts | 242° |
| 2026-04-26 21:18 | 56.28956 | 37.42216 | 8098 ft | 271 kts | 243° |
| 2026-04-26 21:18 | 56.28089 | 37.39198 | 7828 ft | 271 kts | 244° |
| 2026-04-26 21:18 | 56.27225 | 37.36184 | 7570 ft | 270 kts | 244° |
| 2026-04-26 21:19 | 56.26317 | 37.33211 | 7296 ft | 272 kts | 235° |
| 2026-04-26 21:19 | 56.24871 | 37.31047 | 7051 ft | 273 kts | 204° |
| 2026-04-26 21:19 | 56.23053 | 37.30425 | 7008 ft | 271 kts | 175° |
| 2026-04-26 21:19 | 56.21213 | 37.31065 | 7000 ft | 268 kts | 162° |
| 2026-04-26 21:20 | 56.19424 | 37.31996 | 6987 ft | 268 kts | 156° |
| 2026-04-26 21:20 | 56.17953 | 37.33865 | 6928 ft | 256 kts | 121° |
| 2026-04-26 21:20 | 56.17151 | 37.36644 | 6980 ft | 250 kts | 106° |
| 2026-04-26 21:20 | 56.16567 | 37.39655 | 6729 ft | 258 kts | 104° |
| 2026-04-26 21:21 | 56.16005 | 37.42723 | 6508 ft | 259 kts | 103° |
| 2026-04-26 21:21 | 56.15443 | 37.45788 | 6258 ft | 257 kts | 103° |
| 2026-04-26 21:21 | 56.14887 | 37.48779 | 6027 ft | 255 kts | 103° |
| 2026-04-26 21:21 | 56.14323 | 37.51773 | 5807 ft | 252 kts | 103° |
| 2026-04-26 21:22 | 56.13762 | 37.54738 | 5577 ft | 250 kts | 103° |
| 2026-04-26 21:22 | 56.13200 | 37.57689 | 5343 ft | 249 kts | 103° |
| 2026-04-26 21:22 | 56.12640 | 37.60626 | 5117 ft | 247 kts | 102° |
| 2026-04-26 21:23 | 56.11520 | 37.66451 | 4732 ft | 243 kts | 103° |
| 2026-04-26 21:23 | 56.10972 | 37.69276 | 4463 ft | 237 kts | 102° |
| 2026-04-26 21:23 | 56.10439 | 37.72012 | 4241 ft | 229 kts | 101° |
| 2026-04-26 21:23 | 56.09843 | 37.74614 | 3997 ft | 228 kts | 118° |
| 2026-04-26 21:24 | 56.08625 | 37.76359 | 3834 ft | 232 kts | 158° |
| 2026-04-26 21:24 | 56.07035 | 37.76558 | 3568 ft | 230 kts | 198° |
| 2026-04-26 21:24 | 56.05524 | 37.75741 | 3342 ft | 227 kts | 203° |
| 2026-04-26 21:24 | 56.04023 | 37.74868 | 3080 ft | 227 kts | 204° |
| 2026-04-26 21:25 | 56.02583 | 37.73812 | 2800 ft | 218 kts | 225° |
| 2026-04-26 21:25 | 56.01687 | 37.71854 | 2547 ft | 196 kts | 256° |
| 2026-04-26 21:25 | 56.01268 | 37.69634 | 2456 ft | 185 kts | 265° |
| 2026-04-26 21:25 | 56.00943 | 37.67396 | 2423 ft | 184 kts | 266° |
| 2026-04-26 21:26 | 56.00639 | 37.65244 | 2423 ft | 174 kts | 268° |
| 2026-04-26 21:26 | 56.00372 | 37.63144 | 2412 ft | 172 kts | 267° |
| 2026-04-26 21:26 | 56.00078 | 37.61109 | 2388 ft | 163 kts | 266° |
| 2026-04-26 21:26 | 55.99815 | 37.59217 | 2379 ft | 153 kts | 267° |
| 2026-04-26 21:27 | 55.99542 | 37.57490 | 2240 ft | 151 kts | 266° |
| 2026-04-26 21:27 | 55.99272 | 37.55730 | 2020 ft | 146 kts | 266° |
| 2026-04-26 21:27 | 55.99009 | 37.53983 | 1824 ft | 146 kts | 266° |
| 2026-04-26 21:27 | 55.98746 | 37.52225 | 1604 ft | 146 kts | 264° |
| 2026-04-26 21:28 | 55.98484 | 37.50471 | 1380 ft | 146 kts | 261° |
| 2026-04-26 21:28 | 55.98229 | 37.48786 | 1177 ft | 147 kts | 260° |
| 2026-04-26 21:28 | 55.97968 | 37.47035 | 984 ft | 145 kts | 258° |
| 2026-04-26 21:28 | 55.97694 | 37.45244 | 765 ft | 157 kts | 257° |
| 2026-04-26 21:29 | 55.97422 | 37.43362 | 641 ft | 147 kts | 258° |
| 2026-04-26 21:29 | 55.97197 | 37.41852 | 640 ft | 97 kts | 256° |
| 2026-04-26 21:29 | 55.97077 | 37.41041 | 639 ft | 40 kts | 256° |
| 2026-04-26 21:29 | 55.97051 | 37.40871 | 643 ft | 4 kts | 253° |
| 2026-04-26 21:30 | 55.97029 | 37.40736 | 638 ft | 16 kts | 254° |
| 2026-04-26 21:30 | 55.96968 | 37.40517 | 638 ft | 24 kts | 239° |
| 2026-04-26 21:30 | 55.96874 | 37.40325 | 644 ft | 13 kts | 223° |
| 2026-04-26 21:30 | 55.96834 | 37.40254 | 643 ft | 9 kts | 227° |
| 2026-04-26 21:31 | 55.96830 | 37.40246 | 641 ft | 0 kts | 226° |
| 2026-04-26 21:31 | 55.96829 | 37.40244 | 641 ft | 1 kts | 226° |
| 2026-04-26 21:32 | 55.96826 | 37.40237 | 645 ft | 1 kts | 226° |
| 2026-04-26 21:32 | 55.96818 | 37.40223 | 643 ft | 2 kts | 225° |
| 2026-04-26 21:32 | 55.96802 | 37.40198 | 642 ft | 7 kts | 217° |
| 2026-04-26 21:32 | 55.96692 | 37.40171 | 638 ft | 16 kts | 198° |
| 2026-04-26 21:33 | 55.96643 | 37.40174 | 639 ft | 2 kts | 137° |
| 2026-04-26 21:33 | 55.96641 | 37.40201 | 643 ft | 2 kts | 79° |
| 2026-04-26 21:33 | 55.96648 | 37.40224 | 638 ft | 2 kts | 63° |
| 2026-04-26 21:33 | 55.96655 | 37.40249 | 647 ft | 6 kts | 63° |
| 2026-04-26 21:34 | 55.96675 | 37.40351 | 640 ft | 9 kts | 73° |
| 2026-04-26 21:34 | 55.96693 | 37.40461 | 641 ft | 9 kts | 75° |
| 2026-04-26 21:34 | 55.96710 | 37.40580 | 640 ft | 11 kts | 75° |
| 2026-04-26 21:34 | 55.96701 | 37.40690 | 640 ft | 7 kts | 136° |
| 2026-04-26 21:35 | 55.96656 | 37.40709 | 642 ft | 7 kts | 169° |
| 2026-04-26 21:35 | 55.96609 | 37.40730 | 645 ft | 8 kts | 165° |
| 2026-04-26 21:35 | 55.96532 | 37.40766 | 641 ft | 14 kts | 165° |
| 2026-04-26 21:35 | 55.96477 | 37.40791 | 641 ft | 0 kts | 169° |
| 2026-04-26 21:36 | 55.96458 | 37.40791 | 640 ft | 8 kts | 183° |
| 2026-04-26 21:36 | 55.96385 | 37.40815 | 638 ft | 7 kts | 166° |
| 2026-04-26 21:36 | 55.96376 | 37.40818 | 640 ft | 0 kts | 165° |